Cheney, WA

1:09 AM PST on January 27, 2015 (GMT -0800)
1 mile south of Cheney | Change Station
CLOSE
Current Station
Personal Weather Station
Location: Cheney, WA
Elevation: 2339 ft
Nearby Weather Stations

Elev 2339 ft 47.46 °N, 117.60 °W | Updated 18 minutes ago

Partly Cloudy
Partly Cloudy
30.9 °F
Feels Like 31 °F
N
0.0
Wind Variable Wind from SSE
Gusts 0.0 mph

Today
High -- | Low -- °F
--% Chance of Precip.
Yesterday
High -- | Low -- °F
Precip. -- in
7:22 AM 4:44 PM
First Quarter, 52% visible
Pressure 29.99 in
Visibility 3.0 miles
Clouds Clear
Windchill 31 °F
Dew Point 30 °F
Humidity 97%
Rainfall 0.00 in
Snow Depth Not available.
UV 10.8 out of 12
Pollen .80 out of 12
Air Quality Not available.
Flu Activity Not available.
SPECI KSKA 270902Z AUTO 04005KT 3SM BR CLR 00/00 A2999 RMK AO2

More Conditions Fewer Conditions

Pressure 29.99 in
Visibility 3.0 miles
Clouds Clear
Windchill 31 °F
Dew Point 30 °F
Humidity 97%
Rainfall 0.00 in
Snow Depth Not available.
UV 10.8 out of 12
Pollen .80 out of 12
Air Quality Not available.
Flu Activity Not available.
SPECI KSKA 270902Z AUTO 04005KT 3SM BR CLR 00/00 A2999 RMK AO2

More Conditions Fewer Conditions

Nowcast | as of 10:49 PM PST on January 26, 2015

Through Tuesday morning...areas of dense fog have developed over portions of northern Spokane County near the communities of Nine Mile Falls and between north Spokane and Deer Park. Patchy fog was also observed in downtown Spokane. Motorists traveling along Interstate 90...Highway 2...and Highway 395 should plan on fluctuating visibilities down to a quarter a mile at times.

×

10-Day Weather Forecast

Almanac

Astronomy

Jan. 27, 2015 Rise Set
Actual Time
Civil Twilight
Nautical Twilight
Astronomical Twilight
Moon
Length of Visible Light
Length of Day
Tomorrow will be .
, % of the Moon is Illuminated

Today's Extremes

State Highs State Lows

Community

WunderPhotos

Upload Photos

1,790,555 photos uploaded!

WunderBlogs® & News

Nearby

Air Quality

  Air Quality AQ Index Pollutant
Not available.

Snow Depth

Station Depth Elevation

Earthquake Activity

City Distance Mag. Time & Date
Minimum magnitude displayed is 2.5.

Coastal Water Temperatures

Place Temperature

Nearby Weather Stations